createdAt,value
2022-09-24T00:00:09.978Z,0.45
2022-09-24T00:02:38.790Z,0.57
2022-09-24T00:05:08.578Z,0.10
2022-09-24T00:07:37.182Z,0.30
2022-09-24T00:10:06.591Z,0.35
2022-09-24T00:12:37.471Z,0.20
2022-09-24T00:15:07.318Z,0.30
2022-09-24T00:17:36.046Z,0.30
2022-09-24T00:20:05.151Z,0.63
2022-09-24T00:22:34.265Z,0.35
2022-09-24T00:25:20.504Z,0.10
2022-09-24T00:27:50.712Z,0.65
2022-09-24T00:30:19.640Z,0.32
2022-09-24T00:32:48.302Z,0.68
2022-09-24T00:35:17.161Z,0.20
2022-09-24T00:37:45.910Z,0.38
2022-09-24T00:40:15.946Z,0.40
2022-09-24T00:42:44.635Z,0.38
2022-09-24T00:45:14.807Z,0.20
2022-09-24T00:47:45.035Z,0.88
2022-09-24T00:50:20.684Z,0.35
2022-09-24T00:52:54.078Z,0.43
2022-09-24T00:55:23.934Z,0.77
2022-09-24T00:57:56.926Z,0.50
2022-09-24T01:00:27.927Z,0.45
2022-09-24T01:03:01.252Z,0.30
2022-09-24T01:05:30.360Z,0.60
2022-09-24T01:07:59.234Z,0.60
2022-09-24T01:10:51.427Z,0.20
2022-09-24T01:13:59.335Z,0.13
2022-09-24T01:16:39.223Z,0.10
2022-09-24T01:19:19.548Z,0.40
2022-09-24T01:21:55.434Z,0.40
2022-09-24T01:24:52.379Z,0.30
2022-09-24T01:27:28.914Z,0.20
2022-09-24T01:30:05.404Z,0.43
2022-09-24T01:32:38.542Z,0.20
2022-09-24T01:37:42.630Z,0.40
2022-09-24T01:40:13.921Z,0.40
2022-09-24T01:42:44.988Z,0.28
2022-09-24T01:45:17.594Z,0.80
2022-09-24T01:47:46.999Z,0.25
2022-09-24T01:50:18.472Z,0.57
2022-09-24T01:52:53.797Z,0.30
2022-09-24T01:55:26.877Z,0.50
2022-09-24T02:00:28.938Z,0.20
2022-09-24T02:03:01.827Z,0.10
2022-09-24T02:05:35.434Z,0.10
2022-09-24T02:08:08.851Z,0.30
2022-09-24T02:10:47.154Z,0.32
2022-09-24T02:13:18.609Z,0.73
2022-09-24T02:15:53.340Z,0.10
2022-09-24T02:18:28.632Z,0.10
2022-09-24T02:20:59.036Z,0.25
2022-09-24T02:23:29.568Z,0.10
2022-09-24T02:26:02.607Z,0.20
2022-09-24T02:31:09.052Z,0.55
2022-09-24T02:33:57.851Z,0.52
2022-09-24T02:36:27.136Z,0.75
2022-09-24T02:38:55.854Z,0.50
2022-09-24T02:41:26.541Z,0.20
2022-09-24T02:43:55.427Z,0.10
2022-09-24T02:46:25.761Z,0.60
2022-09-24T02:48:54.730Z,0.63
2022-09-24T02:51:23.493Z,0.25
2022-09-24T02:53:52.150Z,1.15
2022-09-24T02:56:20.836Z,0.20
2022-09-24T02:58:49.629Z,0.38
2022-09-24T03:01:18.387Z,0.80
2022-09-24T03:03:48.951Z,0.47
2022-09-24T03:06:17.649Z,0.20
2022-09-24T03:08:47.003Z,0.10
2022-09-24T03:11:18.691Z,0.20
2022-09-24T03:13:47.668Z,0.40
2022-09-24T03:16:17.315Z,0.30
2022-09-24T03:18:49.463Z,0.10
2022-09-24T03:21:20.109Z,0.20
2022-09-24T03:23:48.803Z,0.75
2022-09-24T03:26:18.157Z,0.52
2022-09-24T03:28:47.009Z,0.75
2022-09-24T03:31:14.861Z,0.47
2022-09-24T03:33:45.544Z,0.63
2022-09-24T03:36:17.417Z,0.10
2022-09-24T03:38:48.617Z,0.43
2022-09-24T03:41:18.949Z,0.43
2022-09-24T03:43:47.554Z,0.60
2022-09-24T03:46:17.384Z,0.28
2022-09-24T03:48:47.568Z,0.65
2022-09-24T03:51:20.317Z,0.40
2022-09-24T03:53:49.607Z,0.17
2022-09-24T03:56:18.271Z,0.22
2022-09-24T03:58:48.370Z,0.38
2022-09-24T04:01:21.711Z,0.65
2022-09-24T04:03:51.478Z,0.20
2022-09-24T04:06:25.743Z,0.30
2022-09-24T04:08:55.677Z,0.30
2022-09-24T04:11:24.981Z,0.88
2022-09-24T04:13:54.338Z,0.28
2022-09-24T04:16:23.284Z,0.57
2022-09-24T04:18:52.009Z,0.73
2022-09-24T04:21:22.060Z,0.20
2022-09-24T04:23:50.667Z,0.45
2022-09-24T04:26:21.158Z,0.20
2022-09-24T04:28:50.637Z,0.45
2022-09-24T04:31:20.095Z,0.60
2022-09-24T04:33:48.952Z,0.50
2022-09-24T04:36:18.224Z,0.68
2022-09-24T04:38:48.378Z,1.52
2022-09-24T04:41:17.449Z,0.95
2022-09-24T04:43:46.887Z,0.85
2022-09-24T04:46:15.940Z,0.98
2022-09-24T04:48:44.925Z,1.13
2022-09-24T04:51:13.815Z,2.08
2022-09-24T04:53:42.504Z,1.45
2022-09-24T04:56:12.995Z,0.77
2022-09-24T04:58:41.708Z,1.23
2022-09-24T05:01:10.962Z,1.25
2022-09-24T05:03:39.736Z,0.60
2022-09-24T05:06:08.805Z,0.80
2022-09-24T05:08:37.422Z,0.68
2022-09-24T05:11:06.330Z,0.80
2022-09-24T05:13:36.606Z,0.50
2022-09-24T05:16:05.308Z,1.35
2022-09-24T05:18:33.966Z,0.47
2022-09-24T05:21:02.652Z,2.70
2022-09-24T05:23:31.346Z,1.85
2022-09-24T05:26:17.537Z,1.50
2022-09-24T05:28:47.700Z,0.95
2022-09-24T05:31:17.459Z,1.58
2022-09-24T05:33:46.359Z,0.40
2022-09-24T05:36:15.482Z,1.65
2022-09-24T05:38:44.134Z,0.70
2022-09-24T05:41:12.859Z,1.20
2022-09-24T05:43:41.658Z,0.80
2022-09-24T05:46:11.871Z,1.55
2022-09-24T05:48:40.559Z,1.92
2022-09-24T05:51:09.601Z,1.42
2022-09-24T05:53:38.340Z,1.60
2022-09-24T05:56:07.452Z,1.48
2022-09-24T05:58:36.184Z,3.42
2022-09-24T06:01:05.305Z,2.55
2022-09-24T06:03:35.816Z,2.35
2022-09-24T06:06:04.763Z,9.23
2022-09-24T06:08:34.212Z,2.80
2022-09-24T06:11:05.434Z,2.72
2022-09-24T06:13:35.472Z,4.15
2022-09-24T06:16:05.147Z,2.90
2022-09-24T06:18:36.715Z,1.88
2022-09-24T06:21:07.961Z,2.65
2022-09-24T06:23:37.355Z,1.70
2022-09-24T06:26:08.462Z,1.30
2022-09-24T06:28:38.215Z,1.08
2022-09-24T06:31:08.090Z,2.15
2022-09-24T06:33:38.607Z,1.05
2022-09-24T06:36:07.811Z,1.50
2022-09-24T06:38:36.848Z,0.45
2022-09-24T06:41:06.766Z,0.73
2022-09-24T06:43:36.303Z,0.73
2022-09-24T06:46:05.500Z,0.90
2022-09-24T06:48:34.414Z,0.73
2022-09-24T06:51:06.441Z,0.77
2022-09-24T06:53:35.362Z,0.30
2022-09-24T06:56:04.775Z,1.48
2022-09-24T06:58:34.183Z,0.80
2022-09-24T07:01:04.152Z,0.50
2022-09-24T07:03:34.681Z,0.85
2022-09-24T07:06:07.035Z,0.60
2022-09-24T07:08:36.277Z,0.70
2022-09-24T07:11:05.519Z,0.65
2022-09-24T07:13:34.401Z,0.70
2022-09-24T07:16:03.811Z,0.50
2022-09-24T07:18:32.582Z,0.52
2022-09-24T07:21:01.382Z,0.32
2022-09-24T07:23:31.813Z,0.15
2022-09-24T07:26:00.539Z,0.30
2022-09-24T07:28:29.410Z,0.60
2022-09-24T07:30:59.926Z,0.47
2022-09-24T07:33:29.081Z,0.32
2022-09-24T07:35:57.854Z,0.40
2022-09-24T07:38:27.122Z,0.55
2022-09-24T07:41:00.374Z,0.95
2022-09-24T07:43:29.341Z,0.57
2022-09-24T07:45:58.440Z,0.68
2022-09-24T07:48:27.452Z,0.40
2022-09-24T07:50:56.339Z,0.20
2022-09-24T07:53:25.122Z,0.93
2022-09-24T07:55:53.948Z,0.57
2022-09-24T07:58:24.082Z,0.70
2022-09-24T08:00:52.803Z,0.85
2022-09-24T08:03:21.573Z,0.95
2022-09-24T08:05:50.519Z,0.35
2022-09-24T08:08:20.782Z,0.75
2022-09-24T08:10:49.652Z,0.70
2022-09-24T08:13:18.447Z,0.70
2022-09-24T08:15:48.656Z,0.60
2022-09-24T08:18:17.508Z,0.80
2022-09-24T08:20:46.086Z,0.82
2022-09-24T08:23:15.042Z,0.70
2022-09-24T08:25:43.884Z,0.82
2022-09-24T08:28:12.616Z,0.80
2022-09-24T08:30:41.939Z,0.20
2022-09-24T08:33:12.176Z,0.80
2022-09-24T08:35:40.855Z,0.50
2022-09-24T08:38:10.220Z,0.68
2022-09-24T08:40:44.590Z,0.30
2022-09-24T08:43:30.185Z,0.45
2022-09-24T08:46:21.199Z,0.47
2022-09-24T08:48:54.962Z,0.45
2022-09-24T08:51:24.642Z,0.50
2022-09-24T08:54:01.632Z,0.95
2022-09-24T08:56:33.880Z,0.45
2022-09-24T08:59:08.439Z,0.40
2022-09-24T09:01:46.198Z,1.00
2022-09-24T09:04:26.520Z,0.93
2022-09-24T09:07:06.491Z,1.20
2022-09-24T09:09:43.533Z,0.65
2022-09-24T09:12:18.805Z,0.43
2022-09-24T09:14:52.397Z,1.02
2022-09-24T09:17:42.469Z,0.47
2022-09-24T09:20:18.832Z,0.73
2022-09-24T09:22:51.228Z,0.60
2022-09-24T09:25:28.621Z,0.55
2022-09-24T09:28:02.279Z,0.38
2022-09-24T09:30:38.797Z,0.35
2022-09-24T09:33:35.682Z,0.32
2022-09-24T09:36:20.681Z,0.70
2022-09-24T09:38:59.714Z,0.68
2022-09-24T09:41:37.818Z,0.50
2022-09-24T09:44:15.381Z,0.75
2022-09-24T09:46:53.102Z,0.70
2022-09-24T09:49:23.758Z,0.45
2022-09-24T09:51:57.929Z,0.45
2022-09-24T09:54:38.100Z,0.32
2022-09-24T09:57:08.459Z,0.68
2022-09-24T09:59:37.369Z,0.70
2022-09-24T10:02:11.923Z,0.50
2022-09-24T10:04:42.635Z,0.40
2022-09-24T10:07:14.893Z,0.80
2022-09-24T10:09:45.337Z,0.80
2022-09-24T10:12:21.417Z,0.55
2022-09-24T10:14:59.923Z,0.60
2022-09-24T10:17:32.818Z,0.40
2022-09-24T10:20:03.927Z,0.73
2022-09-24T10:22:34.479Z,0.90
2022-09-24T10:25:03.540Z,0.30
2022-09-24T10:27:36.160Z,1.00
2022-09-24T10:30:32.161Z,0.35
2022-09-24T10:33:03.252Z,0.50
2022-09-24T10:35:35.925Z,0.50
2022-09-24T10:38:18.342Z,0.40
2022-09-24T10:40:47.638Z,0.52
2022-09-24T10:43:21.938Z,0.60
2022-09-24T10:46:08.520Z,0.40
2022-09-24T10:48:44.645Z,0.73
2022-09-24T10:51:33.836Z,1.00
2022-09-24T10:54:22.646Z,0.43
2022-09-24T10:56:55.127Z,0.70
2022-09-24T10:59:39.677Z,0.50
2022-09-24T11:02:39.983Z,0.70
2022-09-24T11:05:13.960Z,0.50
2022-09-24T11:08:05.875Z,0.80
2022-09-24T11:10:57.020Z,0.88
2022-09-24T11:13:40.632Z,0.30
2022-09-24T11:16:45.053Z,0.60
2022-09-24T11:19:26.047Z,0.55
2022-09-24T11:22:09.435Z,0.50
2022-09-24T11:25:10.133Z,0.50
2022-09-24T11:28:12.399Z,0.60
2022-09-24T11:30:52.200Z,0.70
2022-09-24T11:33:36.361Z,0.88
2022-09-24T11:36:24.302Z,0.35
2022-09-24T11:39:07.595Z,0.73
2022-09-24T11:41:50.759Z,0.38
2022-09-24T11:47:18.032Z,0.68
2022-09-24T11:50:13.814Z,0.40
2022-09-24T11:52:46.530Z,0.57
2022-09-24T11:55:20.553Z,0.65
2022-09-24T11:57:55.298Z,0.60
2022-09-24T12:00:32.599Z,0.40
2022-09-24T12:03:07.029Z,0.40
2022-09-24T12:05:41.842Z,0.32
2022-09-24T12:08:18.217Z,0.47
2022-09-24T12:10:51.256Z,0.50
2022-09-24T12:15:56.679Z,0.52
2022-09-24T12:18:29.042Z,0.38
2022-09-24T12:21:02.885Z,0.50
2022-09-24T12:23:35.799Z,0.63
2022-09-24T12:29:07.284Z,0.50
2022-09-24T12:32:04.565Z,0.45
2022-09-24T12:34:42.556Z,0.32
2022-09-24T12:37:16.581Z,0.88
2022-09-24T12:39:51.362Z,0.43
2022-09-24T12:42:23.839Z,0.40
2022-09-24T12:44:56.035Z,0.32
2022-09-24T12:47:28.474Z,0.40
2022-09-24T12:50:00.341Z,0.52
2022-09-24T12:52:34.242Z,0.68
2022-09-24T12:55:04.467Z,0.43
2022-09-24T12:57:37.202Z,0.75
2022-09-24T13:00:29.435Z,0.50
2022-09-24T13:03:00.629Z,0.47
2022-09-24T13:05:34.594Z,0.55
2022-09-24T13:08:05.443Z,0.40
2022-09-24T13:10:35.959Z,0.25
2022-09-24T13:13:22.561Z,0.25
2022-09-24T13:16:02.173Z,0.35
2022-09-24T13:18:34.998Z,0.63
2022-09-24T13:21:06.902Z,0.55
2022-09-24T13:23:48.474Z,0.75
2022-09-24T13:26:34.670Z,0.45
2022-09-24T13:29:06.156Z,0.35
2022-09-24T13:31:51.416Z,0.68
2022-09-24T13:34:26.203Z,0.70
2022-09-24T13:37:00.354Z,0.45
2022-09-24T13:39:36.476Z,0.52
2022-09-24T13:42:09.876Z,0.40
2022-09-24T13:44:41.331Z,0.55
2022-09-24T13:47:16.922Z,0.77
2022-09-24T13:49:51.688Z,0.40
2022-09-24T13:52:31.214Z,0.30
2022-09-24T13:55:04.564Z,0.43
2022-09-24T13:57:45.199Z,0.75
2022-09-24T14:00:20.970Z,0.47
2022-09-24T14:03:06.142Z,0.80
2022-09-24T14:05:38.284Z,0.60
2022-09-24T14:08:10.682Z,0.50
2022-09-24T14:10:40.268Z,0.70
2022-09-24T14:13:21.989Z,1.15
2022-09-24T14:15:58.699Z,0.52
2022-09-24T14:18:29.297Z,4.85
2022-09-24T14:21:04.684Z,3.03
2022-09-24T14:23:37.952Z,0.85
2022-09-24T14:26:08.347Z,0.47
2022-09-24T14:28:37.283Z,0.80
2022-09-24T14:31:09.633Z,0.52
2022-09-24T14:33:40.968Z,0.32
2022-09-24T14:36:14.298Z,0.60
2022-09-24T14:38:54.015Z,0.63
2022-09-24T14:41:29.199Z,2.33
2022-09-24T14:44:03.606Z,0.82
2022-09-24T14:46:35.448Z,2.25
2022-09-24T14:49:18.283Z,1.48
2022-09-24T14:51:55.577Z,1.27
2022-09-24T14:54:35.756Z,0.75
2022-09-24T14:57:12.250Z,0.50
2022-09-24T14:59:43.047Z,1.45
2022-09-24T15:02:18.110Z,0.95
2022-09-24T15:04:49.251Z,1.10
2022-09-24T15:07:25.519Z,0.40
2022-09-24T15:09:57.287Z,0.40
2022-09-24T15:12:31.252Z,0.38
2022-09-24T15:15:02.772Z,0.95
2022-09-24T15:17:34.551Z,0.57
2022-09-24T15:20:05.519Z,0.70
2022-09-24T15:22:35.827Z,1.13
2022-09-24T15:25:05.083Z,0.80
2022-09-24T15:27:35.931Z,0.88
2022-09-24T15:30:08.070Z,1.15
2022-09-24T15:32:37.094Z,1.03
2022-09-24T15:35:09.738Z,1.17
2022-09-24T15:37:41.275Z,1.40
2022-09-24T15:40:20.228Z,5.43
2022-09-24T15:42:49.215Z,2.38
2022-09-24T15:45:19.919Z,1.50
2022-09-24T15:47:48.976Z,1.08
2022-09-24T15:50:18.115Z,1.25
2022-09-24T15:52:50.247Z,1.13
2022-09-24T15:55:21.517Z,0.50
2022-09-24T15:57:50.376Z,0.52
2022-09-24T16:00:21.515Z,0.80
2022-09-24T16:02:52.908Z,0.73
2022-09-24T16:05:22.136Z,1.05
2022-09-24T16:07:52.534Z,0.52
2022-09-24T16:10:21.701Z,1.30
2022-09-24T16:12:50.689Z,0.88
2022-09-24T16:15:19.680Z,0.90
2022-09-24T16:17:50.713Z,1.13
2022-09-24T16:20:19.690Z,0.95
2022-09-24T16:22:48.614Z,1.40
2022-09-24T16:25:19.126Z,1.77
2022-09-24T16:27:47.974Z,0.82
2022-09-24T16:30:16.814Z,1.30
2022-09-24T16:32:46.580Z,1.15
2022-09-24T16:35:15.833Z,1.08
2022-09-24T16:37:44.735Z,0.57
2022-09-24T16:40:13.901Z,0.70
2022-09-24T16:42:44.388Z,0.85
2022-09-24T16:45:14.309Z,1.20
2022-09-24T16:47:43.298Z,1.48
2022-09-24T16:50:12.249Z,5.10
2022-09-24T16:52:42.971Z,4.15
2022-09-24T16:55:12.260Z,4.15
2022-09-24T16:57:41.570Z,3.92
2022-09-24T17:00:13.588Z,4.53
2022-09-24T17:02:42.484Z,3.05
2022-09-24T17:05:11.685Z,2.22
2022-09-24T17:07:40.653Z,2.83
2022-09-24T17:10:14.288Z,4.20
2022-09-24T17:12:48.471Z,2.38
2022-09-24T17:15:21.200Z,3.53
2022-09-24T17:17:51.037Z,2.58
2022-09-24T17:20:20.800Z,1.02
2022-09-24T17:22:50.402Z,1.60
2022-09-24T17:25:19.297Z,2.45
2022-09-24T17:27:48.193Z,1.65
2022-09-24T17:30:18.909Z,1.42
2022-09-24T17:32:47.914Z,2.25
2022-09-24T17:35:16.749Z,2.83
2022-09-24T17:37:45.830Z,1.80
2022-09-24T17:40:21.343Z,1.60
2022-09-24T17:42:52.952Z,1.55
2022-09-24T17:45:23.505Z,2.05
2022-09-24T17:47:58.427Z,0.60
2022-09-24T17:50:28.830Z,1.65
2022-09-24T17:52:59.398Z,2.35
2022-09-24T17:55:28.637Z,1.80
2022-09-24T17:57:57.487Z,1.83
2022-09-24T18:00:28.078Z,1.83
2022-09-24T18:02:57.055Z,4.38
2022-09-24T18:05:26.140Z,1.95
2022-09-24T18:07:54.919Z,1.50
2022-09-24T18:10:23.752Z,1.55
2022-09-24T18:12:55.837Z,1.60
2022-09-24T18:15:25.623Z,1.42
2022-09-24T18:17:56.876Z,0.65
2022-09-24T18:20:26.371Z,1.35
2022-09-24T18:22:55.294Z,1.33
2022-09-24T18:25:24.160Z,1.67
2022-09-24T18:27:53.173Z,2.33
2022-09-24T18:30:22.158Z,1.88
2022-09-24T18:32:50.818Z,1.60
2022-09-24T18:35:20.954Z,1.60
2022-09-24T18:37:49.867Z,2.83
2022-09-24T18:40:18.907Z,0.90
2022-09-24T18:42:47.956Z,0.50
2022-09-24T18:45:18.019Z,1.40
2022-09-24T18:47:46.975Z,0.90
2022-09-24T18:50:16.414Z,1.90
2022-09-24T18:52:46.852Z,1.13
2022-09-24T18:55:15.872Z,1.75
2022-09-24T18:57:44.732Z,1.02
2022-09-24T19:00:34.537Z,1.15
2022-09-24T19:03:03.712Z,0.63
2022-09-24T19:05:32.720Z,1.10
2022-09-24T19:08:03.465Z,1.20
2022-09-24T19:10:33.587Z,1.90
2022-09-24T19:13:02.817Z,1.45
2022-09-24T19:15:31.694Z,1.58
2022-09-24T19:18:00.518Z,1.33
2022-09-24T19:20:29.499Z,0.65
2022-09-24T19:23:00.401Z,0.73
2022-09-24T19:25:33.823Z,0.68
2022-09-24T19:28:04.305Z,0.98
2022-09-24T19:30:39.115Z,1.33
2022-09-24T19:33:08.450Z,0.57
2022-09-24T19:35:37.852Z,2.97
2022-09-24T19:38:06.873Z,2.30
2022-09-24T19:40:37.092Z,0.98
2022-09-24T19:43:05.993Z,1.40
2022-09-24T19:45:35.718Z,3.03
2022-09-24T19:48:04.494Z,1.35
2022-09-24T19:50:35.341Z,2.42
2022-09-24T19:53:05.423Z,0.98
2022-09-24T19:55:37.879Z,2.22
2022-09-24T19:58:07.894Z,1.45
2022-09-24T20:00:38.254Z,1.73
2022-09-24T20:03:07.202Z,2.20
2022-09-24T20:05:36.588Z,1.58
2022-09-24T20:08:05.509Z,1.45
2022-09-24T20:10:38.672Z,0.60
2022-09-24T20:15:40.869Z,1.73
2022-09-24T20:18:12.279Z,1.95
2022-09-24T20:20:41.509Z,1.40
2022-09-24T20:23:10.965Z,1.65
2022-09-24T20:25:58.729Z,3.08
2022-09-24T20:28:27.466Z,1.58
2022-09-24T20:30:56.714Z,1.75
2022-09-24T20:33:28.829Z,1.67
2022-09-24T20:36:02.480Z,1.70
2022-09-24T20:38:31.919Z,1.63
2022-09-24T20:41:02.059Z,1.60
2022-09-24T20:43:30.910Z,1.90
2022-09-24T20:46:01.246Z,1.73
2022-09-24T20:48:33.010Z,2.60
2022-09-24T20:51:01.828Z,2.03
2022-09-24T20:53:30.636Z,1.27
2022-09-24T20:56:00.226Z,1.20
2022-09-24T20:58:30.577Z,2.38
2022-09-24T21:00:59.403Z,1.10
2022-09-24T21:03:43.296Z,0.82
2022-09-24T21:06:15.274Z,1.25
2022-09-24T21:08:45.953Z,1.13
2022-09-24T21:11:18.248Z,1.40
2022-09-24T21:13:50.371Z,0.67
2022-09-24T21:16:21.234Z,0.88
2022-09-24T21:18:52.382Z,0.80
2022-09-24T21:21:22.992Z,0.90
2022-09-24T21:23:53.505Z,0.55
2022-09-24T21:26:23.814Z,0.70
2022-09-24T21:28:55.766Z,0.70
2022-09-24T21:31:26.592Z,0.68
2022-09-24T21:33:55.765Z,0.47
2022-09-24T21:36:29.472Z,1.63
2022-09-24T21:38:59.809Z,0.82
2022-09-24T21:41:30.329Z,1.85
2022-09-24T21:44:00.909Z,0.52
2022-09-24T21:46:31.288Z,0.30
2022-09-24T21:49:01.316Z,0.80
2022-09-24T21:51:30.869Z,0.55
2022-09-24T21:54:01.944Z,0.57
2022-09-24T21:56:32.163Z,0.63
2022-09-24T21:59:22.866Z,1.20
2022-09-24T22:01:51.800Z,0.85
2022-09-24T22:04:20.967Z,1.15
2022-09-24T22:06:51.193Z,0.80
2022-09-24T22:09:20.725Z,0.75
2022-09-24T22:11:49.528Z,1.27
2022-09-24T22:14:19.951Z,1.00
2022-09-24T22:16:48.689Z,1.10
2022-09-24T22:19:17.472Z,0.40
2022-09-24T22:21:46.278Z,0.75
2022-09-24T22:24:16.041Z,0.30
2022-09-24T22:26:45.491Z,1.38
2022-09-24T22:29:14.577Z,1.10
2022-09-24T22:31:44.750Z,0.70
2022-09-24T22:34:31.009Z,0.80
2022-09-24T22:36:59.871Z,0.55
2022-09-24T22:39:28.635Z,0.60
2022-09-24T22:41:57.515Z,0.70
2022-09-24T22:44:26.259Z,0.47
2022-09-24T22:46:56.329Z,0.68
2022-09-24T22:49:25.101Z,1.50
2022-09-24T22:51:53.824Z,0.77
2022-09-24T22:54:24.408Z,0.82
2022-09-24T22:56:53.070Z,1.02
2022-09-24T22:59:21.855Z,0.80
2022-09-24T23:01:50.671Z,1.05
2022-09-24T23:04:20.791Z,2.15
2022-09-24T23:06:49.538Z,0.47
2022-09-24T23:09:18.210Z,1.08
2022-09-24T23:11:46.892Z,0.68
2022-09-24T23:14:17.249Z,1.27
2022-09-24T23:16:46.833Z,1.30
2022-09-24T23:19:17.169Z,1.20
2022-09-24T23:21:47.874Z,0.88
2022-09-24T23:24:18.013Z,0.85
2022-09-24T23:26:47.662Z,1.00
2022-09-24T23:29:16.805Z,0.93
2022-09-24T23:31:45.644Z,0.88
2022-09-24T23:34:15.137Z,0.65
2022-09-24T23:36:45.299Z,1.10
2022-09-24T23:39:15.727Z,1.73
2022-09-24T23:41:44.662Z,1.55
2022-09-24T23:44:13.676Z,1.88
2022-09-24T23:46:42.457Z,1.40
2022-09-24T23:49:11.262Z,1.48
2022-09-24T23:51:39.932Z,0.80
2022-09-24T23:54:08.806Z,1.42
2022-09-24T23:56:38.911Z,1.48
2022-09-24T23:59:07.934Z,1.17
